createdAt,value
2022-09-28T00:02:00.872Z,8.50
2022-09-28T00:04:27.596Z,9.32
2022-09-28T00:06:54.293Z,9.38
2022-09-28T00:09:20.840Z,8.35
2022-09-28T00:11:47.470Z,7.63
2022-09-28T00:14:14.420Z,8.50
2022-09-28T00:16:44.230Z,6.25
2022-09-28T00:19:12.426Z,10.07
2022-09-28T00:21:41.105Z,11.75
2022-09-28T00:24:12.722Z,11.80
2022-09-28T00:26:56.772Z,9.18
2022-09-28T00:29:34.414Z,8.63
2022-09-28T00:32:07.198Z,8.70
2022-09-28T00:34:38.008Z,8.93
2022-09-28T00:37:05.952Z,8.90
2022-09-28T00:39:32.584Z,8.50
2022-09-28T00:41:59.777Z,6.25
2022-09-28T00:44:26.298Z,8.68
2022-09-28T00:46:58.821Z,10.35
2022-09-28T00:49:37.435Z,9.68
2022-09-28T00:52:07.952Z,8.85
2022-09-28T00:54:35.545Z,7.35
2022-09-28T00:57:03.145Z,5.70
2022-09-28T00:59:32.025Z,5.93
2022-09-28T01:04:29.748Z,4.95
2022-09-28T01:06:58.095Z,5.75
2022-09-28T01:09:27.409Z,3.60
2022-09-28T01:11:55.167Z,5.22
2022-09-28T01:14:25.699Z,5.03
2022-09-28T01:17:04.539Z,5.30
2022-09-28T01:22:35.876Z,9.88
2022-09-28T01:25:05.766Z,6.38
2022-09-28T01:27:44.812Z,9.43
2022-09-28T01:30:18.066Z,7.45
2022-09-28T01:32:47.476Z,5.13
2022-09-28T01:35:36.231Z,5.43
2022-09-28T01:40:34.628Z,4.60
2022-09-28T01:43:07.294Z,4.35
2022-09-28T01:45:44.097Z,4.82
2022-09-28T01:48:13.955Z,6.07
2022-09-28T01:50:43.155Z,7.75
2022-09-28T01:53:21.700Z,8.00
2022-09-28T01:55:55.353Z,7.43
2022-09-28T01:59:21.684Z,9.45
2022-09-28T02:01:54.577Z,8.25
2022-09-28T02:04:46.343Z,12.90
2022-09-28T02:07:24.976Z,7.18
2022-09-28T02:10:04.189Z,7.63
2022-09-28T02:12:41.310Z,7.00
2022-09-28T02:15:18.369Z,11.18
2022-09-28T02:17:45.237Z,9.57
2022-09-28T02:20:11.980Z,10.20
2022-09-28T02:22:47.708Z,8.77
2022-09-28T02:25:42.977Z,6.53
2022-09-28T02:28:15.998Z,7.50
2022-09-28T02:30:50.069Z,7.70
2022-09-28T02:33:29.369Z,5.38
2022-09-28T02:36:00.417Z,7.85
2022-09-28T02:38:26.945Z,10.48
2022-09-28T02:41:17.468Z,7.28
2022-09-28T02:44:18.123Z,5.68
2022-09-28T02:46:50.472Z,7.82
2022-09-28T02:49:26.363Z,9.05
2022-09-28T02:52:14.139Z,7.47
2022-09-28T02:54:52.916Z,5.97
2022-09-28T03:00:12.313Z,6.45
2022-09-28T03:03:00.571Z,10.25
2022-09-28T03:05:40.201Z,8.40
2022-09-28T03:08:25.716Z,8.57
2022-09-28T03:11:12.658Z,8.00
2022-09-28T03:13:39.323Z,6.68
2022-09-28T03:16:17.743Z,5.00
2022-09-28T03:18:44.970Z,8.75
2022-09-28T03:21:12.831Z,11.38
2022-09-28T03:23:40.337Z,5.85
2022-09-28T03:26:13.591Z,4.70
2022-09-28T03:28:40.582Z,5.03
2022-09-28T03:31:07.260Z,5.93
2022-09-28T03:33:33.881Z,5.00
2022-09-28T03:36:00.534Z,5.47
2022-09-28T03:38:27.202Z,6.22
2022-09-28T03:40:55.771Z,6.03
2022-09-28T03:43:23.043Z,5.70
2022-09-28T03:45:58.357Z,5.07
2022-09-28T03:48:31.876Z,4.60
2022-09-28T03:51:01.966Z,6.43
2022-09-28T03:53:29.806Z,7.13
2022-09-28T03:56:01.911Z,6.00
2022-09-28T03:58:28.992Z,5.70
2022-09-28T04:01:02.046Z,5.05
2022-09-28T04:03:28.858Z,5.30
2022-09-28T04:05:55.417Z,5.20
2022-09-28T04:08:21.969Z,6.50
2022-09-28T04:10:48.507Z,8.05
2022-09-28T04:13:15.355Z,6.63
2022-09-28T04:15:42.776Z,4.90
2022-09-28T04:18:13.531Z,6.85
2022-09-28T04:20:41.481Z,4.85
2022-09-28T04:23:08.136Z,5.07
2022-09-28T04:25:34.627Z,5.60
2022-09-28T04:28:20.000Z,5.95
2022-09-28T04:30:47.666Z,4.15
2022-09-28T04:33:14.221Z,3.97
2022-09-28T04:35:40.974Z,5.28
2022-09-28T04:38:07.704Z,3.78
2022-09-28T04:40:34.324Z,4.95
2022-09-28T04:43:00.904Z,9.30
2022-09-28T04:45:27.725Z,4.43
2022-09-28T04:47:54.902Z,4.45
2022-09-28T04:50:21.547Z,3.38
2022-09-28T04:52:48.091Z,4.65
2022-09-28T04:55:14.908Z,4.50
2022-09-28T04:57:41.788Z,5.93
2022-09-28T05:00:09.636Z,3.83
2022-09-28T05:02:36.456Z,5.78
2022-09-28T05:05:03.230Z,8.93
2022-09-28T05:07:31.310Z,4.55
2022-09-28T05:09:58.009Z,3.45
2022-09-28T05:12:24.564Z,2.35
2022-09-28T05:14:51.068Z,4.55
2022-09-28T05:17:17.792Z,4.40
2022-09-28T05:19:44.463Z,3.08
2022-09-28T05:22:15.012Z,2.53
2022-09-28T05:24:41.868Z,5.43
2022-09-28T05:27:08.757Z,7.40
2022-09-28T05:29:35.384Z,4.38
2022-09-28T05:32:02.110Z,3.33
2022-09-28T05:34:29.117Z,4.00
2022-09-28T05:36:55.773Z,7.82
2022-09-28T05:39:22.592Z,3.13
2022-09-28T05:41:49.183Z,4.28
2022-09-28T05:44:15.829Z,2.42
2022-09-28T05:46:42.449Z,4.40
2022-09-28T05:49:09.147Z,5.80
2022-09-28T05:51:35.762Z,4.93
2022-09-28T05:54:05.966Z,4.28
2022-09-28T05:56:39.951Z,4.70
2022-09-28T05:59:06.519Z,4.57
2022-09-28T06:01:33.178Z,4.93
2022-09-28T06:03:59.968Z,3.70
2022-09-28T06:06:26.517Z,7.18
2022-09-28T06:08:53.069Z,7.43
2022-09-28T06:11:19.636Z,1.77
2022-09-28T06:13:46.200Z,4.03
2022-09-28T06:16:19.221Z,2.78
2022-09-28T06:18:45.833Z,3.25
2022-09-28T06:21:15.626Z,2.95
2022-09-28T06:23:46.846Z,4.05
2022-09-28T06:26:16.361Z,4.78
2022-09-28T06:28:42.948Z,5.38
2022-09-28T06:31:09.627Z,3.72
2022-09-28T06:33:37.481Z,3.13
2022-09-28T06:36:04.434Z,2.72
2022-09-28T06:38:30.974Z,3.33
2022-09-28T06:40:57.930Z,3.28
2022-09-28T06:43:24.597Z,2.92
2022-09-28T06:45:53.087Z,3.85
2022-09-28T06:48:20.228Z,2.45
2022-09-28T06:50:47.609Z,2.63
2022-09-28T06:53:15.340Z,2.47
2022-09-28T06:55:46.048Z,4.07
2022-09-28T06:58:14.767Z,3.25
2022-09-28T07:03:12.307Z,2.97
2022-09-28T07:05:42.806Z,2.50
2022-09-28T07:08:09.524Z,4.50
2022-09-28T07:10:36.149Z,5.32
2022-09-28T07:13:04.852Z,4.78
2022-09-28T07:15:32.575Z,2.28
2022-09-28T07:18:04.484Z,2.50
2022-09-28T07:20:40.329Z,2.55
2022-09-28T07:23:19.118Z,2.08
2022-09-28T07:25:49.784Z,3.25
2022-09-28T07:28:17.472Z,3.28
2022-09-28T07:30:44.717Z,2.67
2022-09-28T07:33:14.577Z,3.33
2022-09-28T07:35:42.412Z,3.35
2022-09-28T07:38:11.019Z,2.92
2022-09-28T07:40:56.378Z,3.88
2022-09-28T07:43:23.270Z,1.77
2022-09-28T07:45:52.560Z,3.05
2022-09-28T07:48:19.748Z,3.13
2022-09-28T07:50:53.552Z,2.38
2022-09-28T07:53:21.806Z,1.48
2022-09-28T07:55:56.995Z,2.58
2022-09-28T07:58:23.759Z,1.95
2022-09-28T08:00:50.724Z,3.10
2022-09-28T08:03:18.869Z,1.60
2022-09-28T08:05:46.952Z,2.92
2022-09-28T08:08:14.051Z,1.95
2022-09-28T08:10:46.909Z,1.80
2022-09-28T08:13:16.337Z,2.28
2022-09-28T08:15:42.979Z,2.42
2022-09-28T08:18:09.904Z,1.50
2022-09-28T08:20:54.991Z,2.30
2022-09-28T08:23:21.741Z,1.75
2022-09-28T08:25:49.157Z,1.88
2022-09-28T08:28:20.151Z,1.27
2022-09-28T08:30:47.175Z,1.90
2022-09-28T08:33:15.516Z,1.88
2022-09-28T08:35:42.358Z,2.67
2022-09-28T08:38:09.011Z,2.70
2022-09-28T08:40:48.949Z,1.90
2022-09-28T08:43:41.208Z,1.77
2022-09-28T08:46:11.217Z,2.03
2022-09-28T08:49:13.385Z,2.20
2022-09-28T08:52:13.860Z,1.90
2022-09-28T08:54:56.899Z,1.35
2022-09-28T08:57:45.315Z,2.60
2022-09-28T09:02:46.845Z,1.92
2022-09-28T09:05:19.115Z,1.50
2022-09-28T09:08:18.508Z,2.47
2022-09-28T09:11:02.431Z,2.15
2022-09-28T09:13:55.402Z,1.77
2022-09-28T09:16:22.037Z,2.75
2022-09-28T09:18:55.564Z,2.30
2022-09-28T09:21:46.781Z,1.35
2022-09-28T09:24:13.359Z,1.65
2022-09-28T09:26:41.168Z,1.92
2022-09-28T09:29:32.080Z,0.95
2022-09-28T09:32:36.136Z,1.70
2022-09-28T09:35:28.623Z,2.13
2022-09-28T09:38:17.364Z,1.83
2022-09-28T09:41:01.354Z,2.13
2022-09-28T09:44:04.643Z,1.65
2022-09-28T09:46:34.040Z,2.80
2022-09-28T09:49:12.748Z,2.33
2022-09-28T09:51:52.634Z,2.00
2022-09-28T09:54:26.795Z,3.72
2022-09-28T09:57:02.475Z,3.78
2022-09-28T09:59:37.320Z,1.40
2022-09-28T10:02:25.733Z,2.28
2022-09-28T10:05:24.448Z,2.35
2022-09-28T10:07:53.630Z,2.38
2022-09-28T10:10:30.141Z,2.90
2022-09-28T10:12:57.168Z,1.73
2022-09-28T10:15:27.405Z,1.95
2022-09-28T10:18:00.950Z,1.05
2022-09-28T10:20:32.408Z,1.42
2022-09-28T10:23:02.114Z,2.15
2022-09-28T10:25:31.813Z,2.03
2022-09-28T10:28:01.036Z,2.95
2022-09-28T10:30:28.740Z,2.80
2022-09-28T10:32:59.271Z,1.42
2022-09-28T10:35:31.367Z,1.73
2022-09-28T10:38:06.808Z,1.35
2022-09-28T10:40:45.393Z,2.25
2022-09-28T10:43:30.116Z,2.00
2022-09-28T10:46:23.984Z,2.22
2022-09-28T10:48:57.753Z,1.77
2022-09-28T10:51:43.183Z,4.07
2022-09-28T10:54:19.298Z,1.10
2022-09-28T10:56:47.456Z,3.00
2022-09-28T10:59:33.707Z,3.00
2022-09-28T11:02:21.743Z,1.80
2022-09-28T11:04:58.297Z,4.53
2022-09-28T11:07:31.845Z,3.20
2022-09-28T11:10:00.821Z,2.15
2022-09-28T11:12:43.271Z,2.78
2022-09-28T11:15:26.999Z,2.28
2022-09-28T11:17:53.622Z,2.40
2022-09-28T11:20:31.554Z,2.67
2022-09-28T11:23:00.028Z,2.78
2022-09-28T11:27:54.107Z,3.40
2022-09-28T11:30:48.515Z,2.28
2022-09-28T11:33:21.190Z,3.58
2022-09-28T11:36:12.605Z,2.40
2022-09-28T11:38:47.417Z,3.47
2022-09-28T11:41:26.099Z,2.95
2022-09-28T11:43:55.987Z,3.50
2022-09-28T11:46:28.667Z,2.75
2022-09-28T11:49:16.076Z,3.80
2022-09-28T11:51:45.853Z,4.32
2022-09-28T11:54:31.469Z,4.13
2022-09-28T11:57:02.379Z,3.72
2022-09-28T11:59:42.862Z,6.28
2022-09-28T12:02:19.787Z,3.17
2022-09-28T12:04:49.051Z,2.88
2022-09-28T12:07:27.678Z,3.10
2022-09-28T12:10:00.329Z,6.10
2022-09-28T12:12:47.910Z,3.63
2022-09-28T12:15:26.011Z,4.72
2022-09-28T12:18:07.425Z,4.60
2022-09-28T12:20:41.859Z,3.45
2022-09-28T12:23:14.231Z,4.15
2022-09-28T12:25:53.701Z,5.85
2022-09-28T12:28:32.385Z,3.35
2022-09-28T12:31:10.448Z,4.70
2022-09-28T12:33:38.996Z,9.00
2022-09-28T12:39:35.754Z,2.92
2022-09-28T12:41:53.751Z,2.83
2022-09-28T12:44:41.670Z,3.75
2022-09-28T12:47:40.841Z,4.78
2022-09-28T12:50:48.667Z,2.85
2022-09-28T12:53:55.510Z,2.10
2022-09-28T12:56:40.865Z,3.53
2022-09-28T12:59:29.489Z,3.00
2022-09-28T13:02:08.517Z,4.75
2022-09-28T13:05:07.984Z,3.90
2022-09-28T13:07:54.272Z,4.55
2022-09-28T13:10:40.396Z,5.03
2022-09-28T13:13:22.912Z,2.00
2022-09-28T13:16:13.784Z,3.85
2022-09-28T13:19:03.311Z,5.38
2022-09-28T13:21:48.988Z,3.40
2022-09-28T13:24:32.702Z,3.80
2022-09-28T13:27:09.236Z,3.38
2022-09-28T13:29:36.821Z,4.45
2022-09-28T13:32:04.329Z,3.28
2022-09-28T13:34:36.731Z,7.30
2022-09-28T13:37:20.645Z,2.13
2022-09-28T13:39:52.209Z,4.78
2022-09-28T13:42:33.282Z,3.05
2022-09-28T13:45:25.029Z,2.22
2022-09-28T13:47:54.589Z,2.20
2022-09-28T13:50:58.879Z,3.92
2022-09-28T13:54:03.545Z,2.25
2022-09-28T13:57:03.041Z,3.60
2022-09-28T13:59:32.516Z,6.13
2022-09-28T14:02:02.862Z,3.35
2022-09-28T14:05:02.659Z,3.28
2022-09-28T14:07:35.505Z,6.80
2022-09-28T14:10:14.529Z,2.30
2022-09-28T14:13:04.117Z,1.60
2022-09-28T14:15:45.251Z,1.77
2022-09-28T14:18:41.481Z,5.03
2022-09-28T14:21:11.015Z,3.00
2022-09-28T14:24:18.837Z,3.90
2022-09-28T14:26:52.714Z,7.65
2022-09-28T14:29:37.284Z,1.92
2022-09-28T14:32:05.316Z,2.65
2022-09-28T14:34:37.181Z,2.30
2022-09-28T14:37:46.644Z,2.55
2022-09-28T14:40:45.822Z,4.78
2022-09-28T14:43:24.707Z,3.22
2022-09-28T14:46:18.097Z,3.00
2022-09-28T14:49:03.935Z,3.38
2022-09-28T14:51:30.416Z,1.88
2022-09-28T14:54:02.322Z,5.38
2022-09-28T14:56:35.824Z,2.88
2022-09-28T14:59:02.933Z,2.75
2022-09-28T15:01:30.236Z,2.38
2022-09-28T15:04:03.446Z,3.30
2022-09-28T15:06:51.004Z,3.78
2022-09-28T15:09:37.016Z,1.80
2022-09-28T15:12:30.781Z,5.20
2022-09-28T15:15:04.398Z,2.08
2022-09-28T15:17:53.785Z,3.95
2022-09-28T15:20:20.333Z,6.32
2022-09-28T15:22:49.070Z,2.22
2022-09-28T15:25:20.047Z,3.33
2022-09-28T15:27:53.301Z,1.85
2022-09-28T15:30:31.970Z,3.72
2022-09-28T15:33:23.252Z,2.10
2022-09-28T15:35:59.527Z,2.97
2022-09-28T15:38:26.369Z,3.33
2022-09-28T15:40:53.314Z,3.10
2022-09-28T15:43:27.075Z,3.67
2022-09-28T15:46:02.585Z,2.95
2022-09-28T15:48:52.346Z,5.25
2022-09-28T15:51:22.058Z,3.03
2022-09-28T15:54:14.812Z,3.92
2022-09-28T15:57:02.706Z,3.65
2022-09-28T15:59:35.746Z,3.55
2022-09-28T16:02:25.251Z,2.67
2022-09-28T16:04:59.589Z,4.60
2022-09-28T16:07:39.973Z,4.45
2022-09-28T16:10:18.968Z,6.43
2022-09-28T16:12:59.313Z,4.80
2022-09-28T16:15:36.596Z,4.32
2022-09-28T16:18:13.966Z,5.93
2022-09-28T16:20:41.756Z,2.30
2022-09-28T16:23:25.509Z,4.83
2022-09-28T16:25:52.046Z,2.40
2022-09-28T16:28:49.025Z,5.10
2022-09-28T16:31:16.345Z,2.72
2022-09-28T16:33:54.294Z,2.88
2022-09-28T16:36:22.549Z,4.50
2022-09-28T16:38:49.819Z,2.15
2022-09-28T16:41:21.047Z,2.35
2022-09-28T16:43:49.101Z,4.22
2022-09-28T16:46:17.719Z,4.15
2022-09-28T16:51:20.053Z,4.70
2022-09-28T16:54:06.098Z,5.65
2022-09-28T16:56:37.279Z,3.03
2022-09-28T16:59:04.706Z,3.03
2022-09-28T17:01:35.272Z,4.15
2022-09-28T17:04:04.153Z,4.47
2022-09-28T17:06:37.404Z,3.13
2022-09-28T17:09:06.959Z,6.03
2022-09-28T17:11:34.086Z,3.22
2022-09-28T17:14:05.382Z,5.47
2022-09-28T17:16:57.653Z,4.35
2022-09-28T17:19:26.924Z,3.07
2022-09-28T17:21:53.674Z,3.90
2022-09-28T17:24:20.888Z,5.13
2022-09-28T17:26:51.642Z,3.55
2022-09-28T17:29:19.390Z,4.07
2022-09-28T17:31:48.038Z,7.45
2022-09-28T17:36:44.483Z,5.05
2022-09-28T17:39:18.569Z,5.38
2022-09-28T17:41:47.923Z,7.63
2022-09-28T17:44:16.554Z,3.53
2022-09-28T17:49:14.940Z,4.78
2022-09-28T17:51:42.640Z,6.60
2022-09-28T17:54:09.189Z,4.22
2022-09-28T17:56:36.421Z,5.38
2022-09-28T17:59:12.561Z,3.92
2022-09-28T18:01:42.750Z,4.57
2022-09-28T18:04:22.991Z,4.75
2022-09-28T18:06:56.175Z,5.00
2022-09-28T18:09:26.914Z,6.85
2022-09-28T18:12:00.998Z,4.15
2022-09-28T18:14:28.652Z,6.80
2022-09-28T18:16:56.764Z,4.13
2022-09-28T18:19:28.645Z,7.78
2022-09-28T18:22:01.331Z,7.15
2022-09-28T18:24:32.718Z,5.82
2022-09-28T18:27:05.317Z,5.47
2022-09-28T18:29:33.786Z,7.40
2022-09-28T18:32:03.615Z,3.58
2022-09-28T18:34:31.101Z,3.15
2022-09-28T18:37:01.075Z,4.53
2022-09-28T18:39:27.617Z,4.85
2022-09-28T18:41:57.409Z,6.20
2022-09-28T18:44:25.121Z,4.78
2022-09-28T18:46:52.586Z,13.95
2022-09-28T18:49:21.934Z,6.22
2022-09-28T18:51:49.274Z,5.00
2022-09-28T18:54:17.394Z,4.43
2022-09-28T18:56:43.954Z,3.45
2022-09-28T18:59:12.431Z,5.35
2022-09-28T19:01:41.869Z,6.78
2022-09-28T19:04:12.497Z,3.75
2022-09-28T19:06:41.943Z,6.90
2022-09-28T19:09:09.677Z,4.32
2022-09-28T19:11:39.177Z,10.80
2022-09-28T19:14:11.796Z,4.85
2022-09-28T19:16:38.871Z,4.15
2022-09-28T19:19:11.500Z,4.45
2022-09-28T19:21:40.047Z,7.95
2022-09-28T19:24:07.271Z,7.38
2022-09-28T19:26:34.568Z,8.82
2022-09-28T19:29:03.074Z,8.27
2022-09-28T19:31:32.709Z,7.78
2022-09-28T19:34:00.839Z,7.57
2022-09-28T19:36:28.647Z,5.55
2022-09-28T19:39:02.178Z,8.23
2022-09-28T19:42:00.546Z,5.03
2022-09-28T19:44:29.294Z,8.45
2022-09-28T19:49:26.949Z,6.63
2022-09-28T19:52:15.109Z,7.30
2022-09-28T19:54:59.187Z,9.77
2022-09-28T19:57:34.873Z,8.02
2022-09-28T20:00:05.188Z,6.18
2022-09-28T20:02:34.205Z,7.28
2022-09-28T20:05:03.646Z,5.50
2022-09-28T20:07:33.307Z,5.88
2022-09-28T20:10:00.930Z,6.35
2022-09-28T20:12:28.824Z,5.95
2022-09-28T20:14:58.327Z,7.17
2022-09-28T20:17:26.702Z,6.65
2022-09-28T20:19:55.980Z,4.57
2022-09-28T20:22:24.248Z,7.32
2022-09-28T20:24:51.076Z,6.03
2022-09-28T20:27:22.090Z,5.15
2022-09-28T20:29:54.362Z,4.75
2022-09-28T20:34:47.595Z,7.53
2022-09-28T20:37:17.473Z,4.82
2022-09-28T20:39:45.320Z,4.80
2022-09-28T20:42:15.834Z,5.40
2022-09-28T20:44:43.368Z,4.90
2022-09-28T20:47:10.824Z,6.93
2022-09-28T20:49:39.649Z,7.88
2022-09-28T20:54:36.015Z,4.35
2022-09-28T20:57:18.363Z,5.35
2022-09-28T20:59:53.784Z,5.55
2022-09-28T21:02:22.914Z,5.13
2022-09-28T21:04:50.217Z,4.22
2022-09-28T21:07:23.322Z,3.70
2022-09-28T21:09:50.622Z,7.15
2022-09-28T21:12:19.050Z,4.88
2022-09-28T21:14:46.798Z,6.75
2022-09-28T21:17:17.327Z,4.20
2022-09-28T21:19:46.481Z,6.75
2022-09-28T21:24:42.496Z,6.43
2022-09-28T21:27:11.711Z,4.45
2022-09-28T21:29:38.779Z,5.00
2022-09-28T21:32:06.508Z,5.97
2022-09-28T21:34:33.807Z,4.47
2022-09-28T21:37:00.483Z,4.03
2022-09-28T21:39:27.565Z,5.60
2022-09-28T21:41:54.918Z,4.47
2022-09-28T21:44:21.614Z,6.03
2022-09-28T21:46:50.685Z,4.65
2022-09-28T21:49:20.924Z,3.38
2022-09-28T21:51:48.409Z,4.97
2022-09-28T21:54:16.165Z,5.90
2022-09-28T21:56:44.396Z,5.10
2022-09-28T21:59:11.486Z,4.65
2022-09-28T22:01:38.410Z,5.32
2022-09-28T22:04:05.047Z,3.47
2022-09-28T22:06:31.642Z,6.68
2022-09-28T22:08:58.423Z,4.88
2022-09-28T22:11:27.575Z,3.75
2022-09-28T22:13:56.797Z,4.00
2022-09-28T22:16:26.087Z,6.00
2022-09-28T22:18:52.884Z,4.10
2022-09-28T22:21:22.355Z,3.60
2022-09-28T22:23:49.880Z,5.03
2022-09-28T22:26:20.821Z,5.95
2022-09-28T22:28:53.342Z,3.50
2022-09-28T22:31:22.881Z,6.20
2022-09-28T22:33:50.729Z,3.55
2022-09-28T22:36:17.328Z,4.40
2022-09-28T22:38:44.832Z,6.47
2022-09-28T22:41:12.605Z,4.45
2022-09-28T22:43:39.237Z,4.65
2022-09-28T22:46:11.651Z,5.07
2022-09-28T22:48:38.585Z,6.72
2022-09-28T22:51:06.665Z,6.10
2022-09-28T22:53:34.361Z,3.55
2022-09-28T22:56:04.859Z,6.22
2022-09-28T22:58:32.268Z,4.65
2022-09-28T23:01:11.598Z,6.03
2022-09-28T23:03:42.643Z,7.03
2022-09-28T23:06:10.966Z,8.85
2022-09-28T23:08:37.895Z,3.22
2022-09-28T23:11:05.557Z,4.60
2022-09-28T23:13:32.500Z,5.30
2022-09-28T23:16:07.064Z,6.72
2022-09-28T23:18:36.169Z,4.00
2022-09-28T23:21:05.032Z,7.40
2022-09-28T23:25:59.401Z,3.88
2022-09-28T23:28:26.779Z,6.50
2022-09-28T23:30:53.567Z,3.90
2022-09-28T23:33:21.948Z,4.28
2022-09-28T23:35:48.624Z,3.63
2022-09-28T23:38:20.465Z,3.85
2022-09-28T23:40:48.038Z,8.00
2022-09-28T23:43:14.996Z,6.57
2022-09-28T23:45:45.750Z,5.80
2022-09-28T23:48:14.954Z,6.50
2022-09-28T23:50:43.192Z,7.00
2022-09-28T23:53:12.253Z,8.38
2022-09-28T23:55:38.838Z,5.75
2022-09-28T23:58:05.456Z,5.50
